Portada
METAR-TAF:

METAR-TAF

Aeropuertos :

Obihiro, Japón

latitud: 42-44N, longitud: 143-13E, altitud: 149 m

Observación

El informe se hizo hace 26 minutos, a las 23:00 UTC
Viento 14 kt del norte
Temperatura -8°C
Humedad 52%
Presión 1022 hPa
Visibilidad 10 km o más
Escasas nubes a una altura de 4000 ft

METAR: RJCB 242300Z 35014KT 9999 FEW040 M08/M16 Q1022

Hora: 08:26 (23:26 UTC)

Pronóstico

El informe se hizo hace 6 horas y 19 minutos, a las 17:07 UTC
Pronóstico válido del 24 a las 18 UTC al 26 a las 00 UTC
Viento 10 kt del norte
Visibilidad 10 km o más
Escasas nubes a una altura de 3000 ft

TAF: RJCB 241707Z 2418/2600 35010KT 9999 FEW030

Observaciones y pronósticos meteorológicos de más de 4000 aeropuertos (mensajes METAR y TAF).

Los puntos amarillos y rojos representan las estaciones disponibles.

Ponga el ratón en el punto deseado para ver el nombre de la estación.

Haga clic para ver las observaciones y los pronósticos meteorológicos.

Para cambiar el mapa : haga clic en los botones verdes con una cruz de color negro para hacer un zoom, en el botón verde con un guión para alejar o en las flechas verdes para mapas adyacentes.


METAR-TAF: